createdAt,value
2022-10-07T00:00:00.136Z,43.46
2022-10-07T00:05:02.082Z,43.41
2022-10-07T00:10:04.388Z,43.32
2022-10-07T00:15:07.556Z,43.14
2022-10-07T00:20:09.918Z,43.73
2022-10-07T00:25:11.713Z,43.53
2022-10-07T00:30:13.916Z,43.43
2022-10-07T00:35:15.986Z,43.34
2022-10-07T00:40:17.873Z,43.73
2022-10-07T00:45:21.632Z,43.54
2022-10-07T00:50:29.694Z,43.74
2022-10-07T00:55:32.256Z,43.48
2022-10-07T01:00:34.410Z,43.66
2022-10-07T01:05:36.396Z,43.56
2022-10-07T01:10:57.439Z,43.44
2022-10-07T01:16:10.882Z,43.33
2022-10-07T01:21:40.838Z,43.74
2022-10-07T01:26:51.366Z,43.42
2022-10-07T01:32:22.055Z,43.85
2022-10-07T01:37:25.880Z,43.46
2022-10-07T01:42:29.000Z,43.38
2022-10-07T01:47:30.896Z,43.78
2022-10-07T01:52:52.073Z,43.54
2022-10-07T01:58:23.205Z,43.76
2022-10-07T02:03:46.680Z,43.65
2022-10-07T02:08:52.973Z,43.53
2022-10-07T02:14:15.087Z,43.79
2022-10-07T02:19:22.450Z,43.92
2022-10-07T02:24:29.586Z,43.84
2022-10-07T02:29:35.824Z,43.38
2022-10-07T02:34:41.378Z,43.72
2022-10-07T02:39:45.636Z,43.25
2022-10-07T02:44:53.381Z,43.83
2022-10-07T02:49:57.507Z,43.42
2022-10-07T02:55:05.966Z,43.63
2022-10-07T03:00:11.303Z,43.89
2022-10-07T03:05:19.476Z,43.65
2022-10-07T03:10:21.721Z,43.66
2022-10-07T03:15:25.278Z,43.38
2022-10-07T03:20:27.532Z,43.46
2022-10-07T03:25:29.715Z,43.73
2022-10-07T03:30:31.524Z,43.37
2022-10-07T03:35:34.166Z,43.46
2022-10-07T03:40:36.286Z,43.62
2022-10-07T03:45:44.595Z,43.53
2022-10-07T03:50:53.711Z,43.73
2022-10-07T03:55:56.107Z,43.57
2022-10-07T04:01:10.667Z,43.73
2022-10-07T04:06:12.484Z,43.31
2022-10-07T04:11:14.327Z,43.62
2022-10-07T04:16:16.560Z,43.63
2022-10-07T04:21:18.419Z,43.40
2022-10-07T04:26:20.356Z,43.53
2022-10-07T04:31:22.245Z,43.46
2022-10-07T04:36:25.722Z,43.48
2022-10-07T04:41:27.867Z,43.62
2022-10-07T04:46:29.918Z,43.74
2022-10-07T04:51:31.909Z,43.55
2022-10-07T04:56:33.937Z,43.54
2022-10-07T05:01:35.987Z,43.45
2022-10-07T05:06:38.082Z,43.65
2022-10-07T05:11:39.883Z,43.43
2022-10-07T05:16:42.783Z,43.66
2022-10-07T05:21:44.676Z,43.48
2022-10-07T05:26:46.429Z,43.36
2022-10-07T05:31:49.445Z,43.49
2022-10-07T05:36:51.367Z,43.54
2022-10-07T05:41:53.259Z,43.93
2022-10-07T05:46:55.183Z,43.19
2022-10-07T05:51:57.241Z,43.12
2022-10-07T05:56:59.314Z,42.73
2022-10-07T06:02:01.211Z,42.97
2022-10-07T06:07:04.308Z,42.56
2022-10-07T06:12:24.999Z,42.80
2022-10-07T06:17:26.820Z,42.58
2022-10-07T06:22:28.532Z,42.48
2022-10-07T06:27:30.360Z,42.28
2022-10-07T06:32:32.951Z,42.85
2022-10-07T06:37:34.781Z,42.92
2022-10-07T06:42:36.771Z,42.69
2022-10-07T06:47:39.298Z,42.84
2022-10-07T06:52:43.485Z,42.23
2022-10-07T06:57:46.374Z,42.11
2022-10-07T07:02:48.479Z,42.05
2022-10-07T07:07:50.556Z,42.17
2022-10-07T07:12:56.016Z,41.80
2022-10-07T07:17:57.941Z,41.97
2022-10-07T07:22:59.886Z,41.54
2022-10-07T07:28:02.378Z,41.21
2022-10-07T07:33:05.603Z,41.36
2022-10-07T07:38:07.926Z,41.39
2022-10-07T07:43:09.673Z,41.13
2022-10-07T07:48:14.231Z,41.26
2022-10-07T07:53:16.088Z,41.23
2022-10-07T07:58:18.109Z,41.12
2022-10-07T08:03:20.107Z,41.10
2022-10-07T08:08:22.292Z,41.25
2022-10-07T08:13:24.997Z,41.44
2022-10-07T08:18:27.253Z,41.79
2022-10-07T08:23:30.523Z,41.98
2022-10-07T08:28:32.962Z,41.72
2022-10-07T08:33:39.912Z,42.09
2022-10-07T08:38:42.543Z,41.89
2022-10-07T08:43:47.781Z,41.96
2022-10-07T08:49:01.109Z,42.10
2022-10-07T08:54:02.881Z,41.81
2022-10-07T08:59:34.923Z,42.05
2022-10-07T09:04:59.094Z,42.13
2022-10-07T09:10:09.786Z,41.60
2022-10-07T09:15:23.366Z,41.69
2022-10-07T09:20:40.102Z,41.89
2022-10-07T09:25:43.862Z,41.56
2022-10-07T09:30:45.740Z,42.01
2022-10-07T09:35:57.920Z,41.88
2022-10-07T09:41:24.298Z,41.99
2022-10-07T09:46:39.357Z,41.95
2022-10-07T09:51:41.521Z,41.66
2022-10-07T09:56:45.418Z,41.51
2022-10-07T10:01:51.391Z,42.04
2022-10-07T10:06:55.662Z,41.91
2022-10-07T10:12:13.434Z,41.75
2022-10-07T10:17:30.083Z,41.76
2022-10-07T10:22:31.982Z,41.54
2022-10-07T10:27:55.604Z,41.86
2022-10-07T10:33:09.824Z,42.27
2022-10-07T10:38:23.727Z,42.19
2022-10-07T10:43:25.860Z,42.47
2022-10-07T10:48:47.087Z,42.25
2022-10-07T10:54:10.626Z,42.17
2022-10-07T10:59:44.510Z,42.09
2022-10-07T11:04:50.434Z,42.37
2022-10-07T11:09:57.645Z,42.31
2022-10-07T11:15:25.602Z,41.83
2022-10-07T11:20:41.005Z,42.02
2022-10-07T11:26:00.352Z,42.21
2022-10-07T11:31:15.846Z,42.16
2022-10-07T11:36:47.084Z,42.30
2022-10-07T11:41:58.223Z,42.29
2022-10-07T11:47:03.697Z,41.94
2022-10-07T11:52:11.225Z,41.71
2022-10-07T11:57:24.382Z,41.81
2022-10-07T12:02:29.354Z,41.60
2022-10-07T12:07:37.131Z,41.73
2022-10-07T12:12:45.565Z,41.58
2022-10-07T12:18:17.597Z,41.71
2022-10-07T12:23:19.360Z,41.76
2022-10-07T12:28:40.422Z,41.71
2022-10-07T12:33:45.065Z,41.41
2022-10-07T12:39:12.526Z,41.70
2022-10-07T12:44:23.275Z,41.72
2022-10-07T12:49:31.122Z,41.55
2022-10-07T12:54:49.993Z,41.90
2022-10-07T13:00:08.287Z,41.93
2022-10-07T13:05:36.136Z,41.76
2022-10-07T13:11:15.400Z,41.78
2022-10-07T13:16:49.613Z,41.22
2022-10-07T13:21:57.005Z,41.11
2022-10-07T13:27:00.401Z,41.33
2022-10-07T13:32:11.304Z,41.36
2022-10-07T13:37:36.003Z,41.36
2022-10-07T13:42:38.000Z,41.00
2022-10-07T13:47:43.319Z,40.68
2022-10-07T13:52:47.772Z,40.84
2022-10-07T13:57:49.804Z,41.04
2022-10-07T14:02:52.376Z,40.59
2022-10-07T14:08:16.582Z,40.80
2022-10-07T14:13:18.882Z,40.58
2022-10-07T14:18:21.203Z,40.85
2022-10-07T14:23:33.075Z,40.72
2022-10-07T14:28:36.613Z,40.83
2022-10-07T14:34:10.377Z,40.64
2022-10-07T14:39:42.697Z,40.88
2022-10-07T14:44:44.857Z,40.57
2022-10-07T14:49:49.711Z,41.02
2022-10-07T14:54:53.003Z,41.09
2022-10-07T14:59:55.511Z,41.57
2022-10-07T15:04:57.473Z,41.50
2022-10-07T15:09:59.248Z,41.60
2022-10-07T15:15:01.130Z,41.85
2022-10-07T15:20:03.721Z,41.89
2022-10-07T15:25:07.428Z,41.82
2022-10-07T15:30:09.916Z,41.87
2022-10-07T15:35:11.896Z,41.76
2022-10-07T15:40:13.643Z,41.79
2022-10-07T15:45:15.520Z,41.59
2022-10-07T15:50:17.339Z,41.30
2022-10-07T15:55:19.693Z,40.38
2022-10-07T16:00:22.033Z,38.75
2022-10-07T16:05:24.716Z,38.37
2022-10-07T16:10:26.722Z,37.52
2022-10-07T16:15:28.822Z,37.69
2022-10-07T16:20:30.685Z,37.44
2022-10-07T16:25:32.573Z,37.55
2022-10-07T16:30:43.473Z,37.64
2022-10-07T16:35:45.664Z,40.64
2022-10-07T16:40:54.961Z,38.19
2022-10-07T16:46:02.303Z,38.43
2022-10-07T16:51:05.979Z,38.55
2022-10-07T16:56:08.525Z,38.64
2022-10-07T17:01:13.830Z,38.98
2022-10-07T17:06:18.197Z,39.13
2022-10-07T17:11:31.747Z,39.05
2022-10-07T17:16:42.313Z,39.02
2022-10-07T17:21:45.816Z,39.15
2022-10-07T17:26:48.646Z,39.29
2022-10-07T17:31:51.307Z,39.69
2022-10-07T17:36:53.554Z,39.87
2022-10-07T17:41:55.676Z,40.13
2022-10-07T17:46:59.649Z,40.09
2022-10-07T17:52:01.759Z,40.47
2022-10-07T17:57:04.471Z,40.66
2022-10-07T18:02:06.490Z,40.47
2022-10-07T18:07:08.348Z,40.35
2022-10-07T18:12:28.958Z,40.97
2022-10-07T18:17:33.262Z,41.11
2022-10-07T18:22:35.032Z,41.29
2022-10-07T18:27:36.787Z,41.45
2022-10-07T18:32:38.856Z,41.42
2022-10-07T18:37:40.725Z,41.44
2022-10-07T18:42:42.772Z,41.30
2022-10-07T18:47:45.021Z,41.29
2022-10-07T18:52:46.962Z,41.28
2022-10-07T18:57:49.015Z,41.69
2022-10-07T19:02:51.441Z,41.34
2022-10-07T19:07:53.139Z,41.40
2022-10-07T19:13:17.187Z,41.63
2022-10-07T19:18:21.770Z,42.31
2022-10-07T19:23:23.801Z,41.86
2022-10-07T19:28:26.414Z,42.09
2022-10-07T19:33:28.134Z,42.08
2022-10-07T19:38:30.022Z,41.77
2022-10-07T19:43:35.250Z,42.13
2022-10-07T19:48:38.623Z,41.81
2022-10-07T19:53:46.824Z,41.63
2022-10-07T19:58:59.227Z,41.81
2022-10-07T20:04:06.918Z,41.59
2022-10-07T20:09:11.818Z,42.28
2022-10-07T20:14:16.078Z,42.31
2022-10-07T20:19:19.783Z,42.29
2022-10-07T20:24:21.527Z,42.06
2022-10-07T20:29:25.356Z,42.33
2022-10-07T20:34:27.679Z,42.07
2022-10-07T20:39:48.420Z,41.86
2022-10-07T20:44:51.395Z,41.75
2022-10-07T20:49:55.603Z,42.06
2022-10-07T20:54:57.719Z,41.98
2022-10-07T20:59:59.620Z,41.85
2022-10-07T21:05:01.461Z,41.73
2022-10-07T21:10:03.374Z,41.64
2022-10-07T21:15:05.687Z,42.02
2022-10-07T21:20:07.825Z,41.76
2022-10-07T21:25:11.959Z,41.90
2022-10-07T21:30:13.787Z,42.34
2022-10-07T21:35:15.763Z,42.15
2022-10-07T21:40:17.566Z,42.09
2022-10-07T21:45:19.354Z,42.16
2022-10-07T21:50:21.571Z,42.11
2022-10-07T21:55:23.679Z,42.01
2022-10-07T22:00:26.954Z,43.66
2022-10-07T22:05:29.269Z,44.55
2022-10-07T22:10:31.705Z,44.17
2022-10-07T22:15:37.241Z,43.95
2022-10-07T22:20:39.120Z,43.78
2022-10-07T22:25:40.860Z,44.07
2022-10-07T22:30:42.717Z,43.66
2022-10-07T22:35:44.731Z,43.55
2022-10-07T22:40:46.549Z,43.70
2022-10-07T22:45:59.121Z,43.36
2022-10-07T22:51:08.485Z,43.12
2022-10-07T22:56:12.179Z,43.47
2022-10-07T23:01:15.681Z,43.30
2022-10-07T23:06:19.462Z,43.13
2022-10-07T23:11:23.847Z,43.11
2022-10-07T23:16:29.758Z,42.99
2022-10-07T23:21:34.594Z,42.96
2022-10-07T23:26:37.014Z,42.75
2022-10-07T23:31:39.238Z,42.89
2022-10-07T23:36:44.061Z,42.94
2022-10-07T23:41:45.825Z,42.70
2022-10-07T23:46:47.566Z,42.84
2022-10-07T23:51:49.564Z,43.03
2022-10-07T23:56:51.317Z,43.10
